MAPA DE AEROPUERTO

INFORMACIÓN METAR y TAF

METAR FOR BIKF
ADDS - METARS form results

(2355 UTC 21 January 2021)
Data provider http://aviationweather.gov/metar/data/
 
METAR text: BIKF 212330Z 01022KT 9999 SCT027 M02/M07 Q1011
Conditions at: BIKF (KEFLAVIK (CIV/MI, IS) observed 2330 UTC 21 January 2021
Temperature: -2.0°C (28°F)
Dewpoint: -7.0°C (19°F) [RH = 69%]
Pressure (altimeter): 29.85 inches Hg (1011.0 mb)
Winds: from the N (10 degrees) at 25 MPH (22 knots; 11.3 m/s)
Visibility: 6 or more miles (10+ km)
Ceiling: at least 12,000 feet AGL
Clouds: scattered clouds at 2700 feet AGL
Weather: no significant weather observed at this time

METAR text: BIKF 212300Z 02023KT 9999 FEW027 M02/M07 Q1011
Conditions at: BIKF (KEFLAVIK (CIV/MI, IS) observed 2300 UTC 21 January 2021
Temperature: -2.0°C (28°F)
Dewpoint: -7.0°C (19°F) [RH = 69%]
Pressure (altimeter): 29.85 inches Hg (1011.0 mb)
Winds: from the NNE (20 degrees) at 26 MPH (23 knots; 11.8 m/s)
Visibility: 6 or more miles (10+ km)
Ceiling: at least 12,000 feet AGL
Clouds: few clouds at 2700 feet AGL
Weather: no significant weather observed at this time

Forecast for: BIKF (KEFLAVIK (CIV/MI, IS)
Text: TAF BIKF 212207Z 2200/2300 03022KT 9999 SCT020 TXM01/2224Z TNM03/2204Z
Forecast period: 0000 UTC 22 January 2021 to 0000 UTC 23 January 2021
Forecast type: FROM: standard forecast or significant change
Winds: from the NNE (30 degrees) at 25 MPH (22 knots; 11.3 m/s)
Visibility: 6 or more miles (10+ km)
Ceiling: at least 12,000 feet AGL
Clouds: scattered clouds at 2000 feet AGL
Weather: no significant weather forecast for this period
Text: PROB30
Forecast period: 0500 UTC 22 January 2021 to 0000 UTC 23 January 2021
Forecast type: TEMPORARY: The following changes expected for less than half the time period
Visibility: 3 miles (5 km)
Ceiling: 1400 feet AGL
Clouds: broken clouds at 1400 feet AGL
Weather: -SHSN  (light snow showers)